Map

Track Data

SID SEASON NUMBER BASIN SUBBASIN NAME ISO_TIME NATURE LAT LON WMO_WIND WMO_PRES WMO_AGENCY TRACK_TYPE DIST2LAND LANDFALL IFLAG USA_AGENCY USA_ATCF_ID USA_LAT USA_LON USA_RECORD USA_STATUS USA_WIND USA_PRES USA_SSHS USA_R34_NE USA_R34_SE USA_R34_SW USA_R34_NW USA_R50_NE USA_R50_SE USA_R50_SW USA_R50_NW USA_R64_NE USA_R64_SE USA_R64_SW USA_R64_NW USA_POCI USA_ROCI USA_RMW USA_EYE TOKYO_LAT TOKYO_LON TOKYO_GRADE TOKYO_WIND TOKYO_PRES TOKYO_R50_DIR TOKYO_R50_LONG TOKYO_R50_SHORT TOKYO_R30_DIR TOKYO_R30_LONG TOKYO_R30_SHORT TOKYO_LAND CMA_LAT CMA_LON CMA_CAT CMA_WIND CMA_PRES HKO_LAT HKO_LON HKO_CAT HKO_WIND HKO_PRES NEWDELHI_LAT NEWDELHI_LON NEWDELHI_GRADE NEWDELHI_WIND NEWDELHI_PRES NEWDELHI_CI NEWDELHI_DP NEWDELHI_POCI REUNION_LAT REUNION_LON REUNION_TYPE REUNION_WIND REUNION_PRES REUNION_TNUM REUNION_CI REUNION_RMW REUNION_R34_NE REUNION_R34_SE REUNION_R34_SW REUNION_R34_NW REUNION_R50_NE REUNION_R50_SE REUNION_R50_SW REUNION_R50_NW REUNION_R64_NE REUNION_R64_SE REUNION_R64_SW REUNION_R64_NW BOM_LAT BOM_LON BOM_TYPE BOM_WIND BOM_PRES BOM_TNUM BOM_CI BOM_RMW BOM_R34_NE BOM_R34_SE BOM_R34_SW BOM_R34_NW BOM_R50_NE BOM_R50_SE BOM_R50_SW BOM_R50_NW BOM_R64_NE BOM_R64_SE BOM_R64_SW BOM_R64_NW BOM_ROCI BOM_POCI BOM_EYE BOM_POS_METHOD BOM_PRES_METHOD NADI_LAT NADI_LON NADI_CAT NADI_WIND NADI_PRES WELLINGTON_LAT WELLINGTON_LON WELLINGTON_WIND WELLINGTON_PRES DS824_LAT DS824_LON DS824_STAGE DS824_WIND DS824_PRES TD9636_LAT TD9636_LON TD9636_STAGE TD9636_WIND TD9636_PRES TD9635_LAT TD9635_LON TD9635_WIND TD9635_PRES TD9635_ROCI NEUMANN_LAT NEUMANN_LON NEUMANN_CLASS NEUMANN_WIND NEUMANN_PRES MLC_LAT MLC_LON MLC_CLASS MLC_WIND MLC_PRES USA_GUST BOM_GUST BOM_GUST_PER REUNION_GUST REUNION_GUST_PER USA_SEAHGT USA_SEARAD_NE USA_SEARAD_SE USA_SEARAD_SW USA_SEARAD_NW STORM_SPEED STORM_DIR
1991250N10334 1991 61 NA NA DANNY 1991-09-07 00:00:00 TS 10.4000 -25.8000 25 1010 hurdat_atl main 1006 1006 O_____________ hurdat_atl AL071991 10.4000 -25.8000 TD 25 1010 -1 17 263
1991250N10334 1991 61 NA NA DANNY 1991-09-07 03:00:00 TS 10.3003 -26.6426 main 1094 1094 P_____________ AL071991 10.3003 -26.6426 TD 25 1009 -1 17 263
1991250N10334 1991 61 NA NA DANNY 1991-09-07 06:00:00 TS 10.2000 -27.5000 25 1009 hurdat_atl main 1193 1193 O_____________ hurdat_atl AL071991 10.2000 -27.5000 TD 25 1009 -1 17 263
1991250N10334 1991 61 NA NA DANNY 1991-09-07 09:00:00 TS 10.0999 -28.3724 main 1291 1291 P_____________ AL071991 10.0999 -28.3724 TD 25 1008 -1 17 263
1991250N10334 1991 61 NA NA DANNY 1991-09-07 12:00:00 TS 10.0000 -29.2000 25 1008 hurdat_atl main 1375 1375 O_____________ hurdat_atl AL071991 10.0000 -29.2000 TD 25 1008 -1 15 262
1991250N10334 1991 61 NA NA DANNY 1991-09-07 15:00:00 TS 9.89221 -29.9225 main 1450 1450 P_____________ AL071991 9.89221 -29.9225 TD 27 1008 -1 14 262
1991250N10334 1991 61 NA NA DANNY 1991-09-07 18:00:00 TS 9.80000 -30.6000 30 1008 hurdat_atl main 1525 1525 O_____________ hurdat_atl AL071991 9.80000 -30.6000 TD 30 1008 -1 14 263
1991250N10334 1991 61 NA NA DANNY 1991-09-07 21:00:00 TS 9.72736 -31.3000 main 1601 1601 P_____________ AL071991 9.72736 -31.3000 TD 30 1007 -1 14 266
1991250N10334 1991 61 NA NA DANNY 1991-09-08 00:00:00 TS 9.70000 -32.0000 30 1007 hurdat_atl main 1651 1620 O_____________ hurdat_atl AL071991 9.70000 -32.0000 TD 30 1007 -1 14 269
1991250N10334 1991 61 NA NA DANNY 1991-09-08 03:00:00 TS 9.70476 -32.6852 main 1615 1590 P_____________ AL071991 9.70476 -32.6852 TD 30 1006 -1 14 274
1991250N10334 1991 61 NA NA DANNY 1991-09-08 06:00:00 TS 9.80000 -33.4000 30 1006 hurdat_atl main 1590 1571 O_____________ hurdat_atl AL071991 9.80000 -33.4000 TD 30 1006 -1 15 282
1991250N10334 1991 61 NA NA DANNY 1991-09-08 09:00:00 TS 10.0200 -34.1924 main 1573 1566 P_____________ AL071991 10.0200 -34.1924 TD 32 1005 -1 17 288
1991250N10334 1991 61 NA NA DANNY 1991-09-08 12:00:00 TS 10.3000 -35.0000 35 1005 hurdat_atl main 1571 1568 O_____________ hurdat_atl AL071991 10.3000 -35.0000 TS 35 1005 0 16 289
1991250N10334 1991 61 NA NA DANNY 1991-09-08 15:00:00 TS 10.5498 -35.7651 main 1565 1565 P_____________ AL071991 10.5498 -35.7651 TS 37 1004 0 16 289
1991250N10334 1991 61 NA NA DANNY 1991-09-08 18:00:00 TS 10.8000 -36.5000 40 1004 hurdat_atl main 1577 1575 O_____________ hurdat_atl AL071991 10.8000 -36.5000 TS 40 1004 0 15 290
1991250N10334 1991 61 NA NA DANNY 1991-09-08 21:00:00 TS 11.0496 -37.1852 main 1583 1583 P_____________ AL071991 11.0496 -37.1852 TS 40 1003 0 15 290
1991250N10334 1991 61 NA NA DANNY 1991-09-09 00:00:00 TS 11.3000 -37.9000 40 1002 hurdat_atl main 1604 1603 O_____________ hurdat_atl AL071991 11.3000 -37.9000 TS 40 1002 0 16 288
1991250N10334 1991 61 NA NA DANNY 1991-09-09 03:00:00 TS 11.5348 -38.7128 main 1605 1547 P_____________ AL071991 11.5348 -38.7128 TS 42 1001 0 17 287
1991250N10334 1991 61 NA NA DANNY 1991-09-09 06:00:00 TS 11.8000 -39.6000 45 1000 hurdat_atl main 1538 1475 O_____________ hurdat_atl AL071991 11.8000 -39.6000 TS 45 1000 0 19 288
1991250N10334 1991 61 NA NA DANNY 1991-09-09 09:00:00 TS 12.1198 -40.5352 main 1475 1424 P_____________ AL071991 12.1198 -40.5352 TS 45 999 0 20 291
1991250N10334 1991 61 NA NA DANNY 1991-09-09 12:00:00 TS 12.5000 -41.5000 45 999 hurdat_atl main 1416 1373 O_____________ hurdat_atl AL071991 12.5000 -41.5000 TS 45 999 0 21 294
1991250N10334 1991 61 NA NA DANNY 1991-09-09 15:00:00 TS 12.9422 -42.4575 main 1365 1343 P_____________ AL071991 12.9422 -42.4575 TS 45 999 0 21 296
1991250N10334 1991 61 NA NA DANNY 1991-09-09 18:00:00 TS 13.4000 -43.4000 45 999 hurdat_atl main 1338 1316 O_____________ hurdat_atl AL071991 13.4000 -43.4000 TS 45 999 0 20 296
1991250N10334 1991 61 NA NA DANNY 1991-09-09 21:00:00 TS 13.8143 -44.2855 main 1312 1297 P_____________ AL071991 13.8143 -44.2855 TS 45 998 0 19 295
1991250N10334 1991 61 NA NA DANNY 1991-09-10 00:00:00 TS 14.2000 -45.2000 45 998 hurdat_atl main 1293 1261 O_____________ hurdat_atl AL071991 14.2000 -45.2000 TS 45 998 0 20 292
1991250N10334 1991 61 NA NA DANNY 1991-09-10 03:00:00 TS 14.5795 -46.2051 main 1264 1236 P_____________ AL071991 14.5795 -46.2051 TS 45 998 0 22 289
1991250N10334 1991 61 NA NA DANNY 1991-09-10 06:00:00 TS 14.9000 -47.3000 45 999 hurdat_atl main 1231 1198 O_____________ hurdat_atl AL071991 14.9000 -47.3000 TS 45 999 0 23 284
1991250N10334 1991 61 NA NA DANNY 1991-09-10 09:00:00 TS 15.1222 -48.4780 main 1194 1166 P_____________ AL071991 15.1222 -48.4780 TS 45 999 0 24 280
1991250N10334 1991 61 NA NA DANNY 1991-09-10 12:00:00 TS 15.3000 -49.7000 45 999 hurdat_atl main 1161 1133 O_____________ hurdat_atl AL071991 15.3000 -49.7000 TS 45 999 0 24 280
1991250N10334 1991 61 NA NA DANNY 1991-09-10 15:00:00 TS 15.5223 -50.9297 main 1133 1120 P_____________ AL071991 15.5223 -50.9297 TS 42 999 0 23 280
1991250N10334 1991 61 NA NA DANNY 1991-09-10 18:00:00 TS 15.7000 -52.1000 40 1000 hurdat_atl main 1114 1028 O_____________ hurdat_atl AL071991 15.7000 -52.1000 TS 40 1000 0 21 277
1991250N10334 1991 61 NA NA DANNY 1991-09-10 21:00:00 TS 15.7716 -53.1304 main 1028 948 P_____________ AL071991 15.7716 -53.1304 TS 37 1001 0 19 273
1991250N10334 1991 61 NA NA DANNY 1991-09-11 00:00:00 TS 15.8000 -54.1000 35 1002 hurdat_atl main 940 864 O_____________ hurdat_atl AL071991 15.8000 -54.1000 TS 35 1002 0 19 272
1991250N10334 1991 61 NA NA DANNY 1991-09-11 03:00:00 TS 15.8495 -55.1000 main 856 794 P_____________ AL071991 15.8495 -55.1000 TS 35 1003 0 19 273
1991250N10334 1991 61 NA NA DANNY 1991-09-11 06:00:00 TS 15.9000 -56.1000 35 1005 hurdat_atl main 787 725 O_____________ hurdat_atl AL071991 15.9000 -56.1000 TS 35 1005 0 19 273
1991250N10334 1991 61 NA NA DANNY 1991-09-11 09:00:00 TS 15.9509 -57.0999 main 728 676 P_____________ AL071991 15.9509 -57.0999 TS 32 1007 -1 19 273
1991250N10334 1991 61 NA NA DANNY 1991-09-11 12:00:00 TS 16.0000 -58.1000 30 1010 hurdat_atl main 671 O_____________ hurdat_atl AL071991 16.0000 -58.1000 TD 30 1010 -1 19 273

About IBTrACS Database

This database is a web-friendly format of International Best Track Archive for Climate Stewardship (IBTrACS), a global best track data archive curated by NOAA dating back to 1842.

Updated: 2021-10-08